This is the latest recevied weather packets stored in our database for station/object IZ8XTV-13. If no packets are shown the sender has not sent any weather packets the latest 10 day(s).
| Time | Temp. | Humidity | Pressure | Rain* | Wind** | Luminosity | Snow |
|---|---|---|---|---|---|---|---|
| 1778080587 | 23.89° C | 77% | 1014.1 hPa | 0 mm | - | - | - |
| 1778079976 | 24.44° C | 75% | 1014 hPa | 0 mm | - | - | - |
| 1778079363 | 24.44° C | 74% | 1013.8 hPa | 0 mm | - | - | - |
| 1778078752 | 24.44° C | 77% | 1013.9 hPa | 0 mm | - | - | - |
| 1778078141 | 24.44° C | 80% | 1013.9 hPa | 0 mm | - | - | - |
| 1778077529 | 25° C | 78% | 1014 hPa | 0 mm | - | - | - |
| 1778076918 | 25° C | 77% | 1013.9 hPa | 0 mm | - | - | - |
| 1778076306 | 25° C | 77% | 1013.8 hPa | 0 mm | - | - | - |
| 1778075694 | 25.56° C | 76% | 1014 hPa | 0 mm | - | - | - |
| 1778075081 | 25° C | 80% | 1014.2 hPa | 0 mm | - | - | - |
| 1778074470 | 24.44° C | 80% | 1014.1 hPa | 0 mm | - | - | - |
| 1778073859 | 25.56° C | 76% | 1014 hPa | 0 mm | - | - | - |
| 1778073247 | 24.44° C | 79% | 1014.2 hPa | 0 mm | - | - | - |
| 1778072636 | 25.56° C | 80% | 1014.2 hPa | 0 mm | - | - | - |
| 1778072025 | 25° C | 80% | 1014.1 hPa | 0 mm | - | - | - |
| 1778071414 | 25.56° C | 80% | 1014 hPa | 0 mm | - | - | - |
| 1778070802 | 25° C | 81% | 1014.1 hPa | 0 mm | - | - | - |
| 1778070191 | 25° C | 82% | 1014.3 hPa | 0 mm | - | - | - |
| 1778069579 | 24.44° C | 83% | 1014.2 hPa | 0 mm | - | - | - |
| 1778068968 | 25° C | 82% | 1014.3 hPa | 0 mm | - | - | - |
| 1778068355 | 26.11° C | 81% | 1014.3 hPa | 0 mm | - | - | - |
| 1778067744 | 25.56° C | 83% | 1014.2 hPa | 0 mm | - | - | - |
| 1778067133 | 25° C | 85% | 1014.4 hPa | 0 mm | - | - | - |
| 1778066521 | 24.44° C | 87% | 1014.3 hPa | 0 mm | - | - | - |
| 1778065910 | 23.89° C | 89% | 1014.2 hPa | 0 mm | - | - | - |
* Rain latest hour (hover to see other rain measurements)
** Current wind speed in m/s (hover to see current wind gust speed)